Time;durP1;ratioP1;P1;durP2;ratioP2;P2;SDS_P1;SDS_P2;PMS_P1;PMS_P2;Temp;Humidity;BMP_temperature;BMP_pressure;BME280_temperature;BME280_humidity;BME280_pressure;Samples;Min_cycle;Max_cycle;Signal;HPM_P1;HPM_P2
2022/08/16 00:02:25;;;;;;;13.13;2.60;;;;;;;-144.43;100.00;67396.00;5095261;28;20040;-61
2022/08/16 00:05:51;;;;;;;13.27;3.13;;;;;;;-144.43;100.00;67396.00;5086254;28;20576;-59
2022/08/16 00:09:17;;;;;;;22.75;3.10;;;;;;;-144.43;100.00;67396.00;5094456;28;20571;-61
2022/08/16 00:12:44;;;;;;;16.20;2.78;;;;;;;-144.43;100.00;67396.00;5092234;28;20043;-60
2022/08/16 00:16:11;;;;;;;12.70;2.65;;;;;;;-144.43;100.00;67396.00;5088185;28;20044;-59
2022/08/16 00:19:36;;;;;;;15.68;2.92;;;;;;;-144.43;100.00;67396.00;5084136;28;20438;-58
2022/08/16 00:23:02;;;;;;;18.55;3.17;;;;;;;-144.43;100.00;67396.00;5093003;28;20510;-58
2022/08/16 00:26:28;;;;;;;12.82;2.70;;;;;;;-144.43;100.00;67396.00;5077927;28;20036;-58
2022/08/16 00:29:53;;;;;;;10.88;2.72;;;;;;;-144.43;100.00;67396.00;5081860;28;20036;-58
2022/08/16 00:33:19;;;;;;;6.15;2.30;;;;;;;-144.43;100.00;67396.00;5093558;28;20039;-59
2022/08/16 00:36:45;;;;;;;19.52;2.90;;;;;;;-144.43;100.00;67396.00;5077700;28;20070;-59
2022/08/16 00:40:17;;;;;;;15.10;2.50;;;;;;;-144.43;100.00;67396.00;5078196;28;20037;-58
2022/08/16 00:43:42;;;;;;;14.57;2.45;;;;;;;-144.43;100.00;67396.00;5092747;28;20036;-58
2022/08/16 00:47:17;;;;;;;26.40;3.35;;;;;;;-144.43;100.00;67396.00;5093654;28;20047;-59
2022/08/16 00:50:43;;;;;;;21.45;3.30;;;;;;;-144.43;100.00;67396.00;5093992;28;20431;-59
2022/08/16 00:54:10;;;;;;;23.52;3.40;;;;;;;-144.43;100.00;67396.00;5094950;28;20036;-60
2022/08/16 00:57:36;;;;;;;16.42;3.47;;;;;;;-144.43;100.00;67396.00;5083493;28;20029;-59
2022/08/16 01:00:06;;;;;;;13.52;2.92;;;;;;;-144.43;100.00;67396.00;5090635;28;20028;-61
2022/08/16 01:02:33;;;;;;;29.95;3.45;;;;;;;-144.43;100.00;67396.00;5084154;28;20570;-60
2022/08/16 01:05:01;;;;;;;22.48;3.33;;;;;;;-144.43;100.00;67396.00;5086977;28;20047;-60
2022/08/16 01:07:28;;;;;;;20.73;3.20;;;;;;;-144.43;100.00;67396.00;5093981;28;20081;-61
2022/08/16 01:09:54;;;;;;;21.15;3.65;;;;;;;-144.43;100.00;67396.00;5093916;28;20032;-60
2022/08/16 01:12:21;;;;;;;16.33;3.00;;;;;;;-144.43;100.00;67396.00;5090133;28;20016;-60
2022/08/16 01:14:53;;;;;;;24.23;3.45;;;;;;;-144.43;100.00;67396.00;5093428;28;20036;-59
2022/08/16 01:17:22;;;;;;;20.05;3.13;;;;;;;-144.43;100.00;67396.00;5108927;28;20111;-59
2022/08/16 01:19:53;;;;;;;17.33;3.03;;;;;;;-144.43;100.00;67396.00;5091627;28;20127;-60
2022/08/16 01:22:39;;;;;;;22.30;3.60;;;;;;;-144.43;100.00;67396.00;5082018;28;20505;-61
2022/08/16 01:25:21;;;;;;;20.77;3.53;;;;;;;-144.43;100.00;67396.00;5083886;28;20082;-61
2022/08/16 01:27:53;;;;;;;48.83;4.65;;;;;;;-144.43;100.00;67396.00;5091925;28;20067;-62
2022/08/16 01:30:26;;;;;;;21.40;3.55;;;;;;;-144.43;100.00;67396.00;5087544;28;20119;-62
2022/08/16 01:33:59;;;;;;;20.70;3.20;;;;;;;-144.43;100.00;67396.00;5102406;28;20140;-62
2022/08/16 01:37:26;;;;;;;22.27;3.42;;;;;;;-144.43;100.00;67396.00;5099154;27;20127;-63
2022/08/16 01:40:53;;;;;;;23.50;3.38;;;;;;;-144.43;100.00;67396.00;5081916;28;20513;-61
2022/08/16 01:44:23;;;;;;;17.98;3.08;;;;;;;-144.43;100.00;67396.00;5084271;28;20465;-62
2022/08/16 01:47:49;;;;;;;18.48;3.00;;;;;;;-144.43;100.00;67396.00;5079242;28;20037;-63
2022/08/16 01:51:20;;;;;;;19.08;3.60;;;;;;;-144.43;100.00;67396.00;5084131;28;20521;-63
2022/08/16 01:54:45;;;;;;;22.20;3.53;;;;;;;-144.43;100.00;67396.00;5088825;28;20036;-62
2022/08/16 01:58:14;;;;;;;40.28;6.03;;;;;;;-144.43;100.00;67396.00;5083182;28;20502;-61
2022/08/16 02:01:40;;;;;;;22.30;3.60;;;;;;;-144.43;100.00;67396.00;5096796;28;20504;-61
2022/08/16 02:05:06;;;;;;;9.57;1.70;;;;;;;-144.43;100.00;67396.00;5093959;28;20064;-62
2022/08/16 02:08:31;;;;;;;11.60;2.20;;;;;;;-144.43;100.00;67396.00;5086192;28;20039;-63
2022/08/16 02:11:59;;;;;;;11.00;2.10;;;;;;;-144.43;100.00;67396.00;5086349;28;20368;-62
2022/08/16 02:15:27;;;;;;;10.27;2.80;;;;;;;-144.43;100.00;67396.00;5102875;28;20032;-62
2022/08/16 02:18:55;;;;;;;17.95;2.70;;;;;;;-144.43;100.00;67396.00;5084905;28;20040;-62
2022/08/16 02:22:21;;;;;;;18.15;2.50;;;;;;;-144.43;100.00;67396.00;5085423;28;20479;-62
2022/08/16 02:25:47;;;;;;;13.77;2.38;;;;;;;-144.43;100.00;67396.00;5086714;28;20039;-60
2022/08/16 02:29:17;;;;;;;9.77;2.15;;;;;;;-144.43;100.00;67396.00;5081020;28;20032;-60
2022/08/16 02:32:44;;;;;;;14.15;2.38;;;;;;;-144.43;100.00;67396.00;5082706;28;20383;-60
2022/08/16 02:36:11;;;;;;;9.57;1.92;;;;;;;-144.43;100.00;67396.00;5089188;28;20028;-61
2022/08/16 02:39:37;;;;;;;15.50;2.50;;;;;;;-144.43;100.00;67396.00;5086117;28;20386;-60
2022/08/16 02:43:03;;;;;;;10.88;2.60;;;;;;;-144.43;100.00;67396.00;5086613;28;20070;-61
2022/08/16 02:46:29;;;;;;;9.10;2.45;;;;;;;-144.43;100.00;67396.00;5085893;28;20029;-62
2022/08/16 02:49:53;;;;;;;;;;;;;;;-144.43;100.00;67396.00;5085186;28;20028;-60
2022/08/16 02:53:19;;;;;;;11.57;2.90;;;;;;;-144.43;100.00;67396.00;5088100;28;19938;-62
2022/08/16 02:56:45;;;;;;;13.60;2.70;;;;;;;-144.43;100.00;67396.00;5091997;28;20027;-62
2022/08/16 03:00:12;;;;;;;13.23;2.55;;;;;;;-144.43;100.00;67396.00;5119056;27;20036;-60
2022/08/16 03:03:39;;;;;;;15.20;2.78;;;;;;;-144.43;100.00;67396.00;5086126;28;20477;-63
2022/08/16 03:07:05;;;;;;;12.52;2.58;;;;;;;-144.43;100.00;67396.00;5086888;28;20078;-62
2022/08/16 03:10:41;;;;;;;10.13;2.45;;;;;;;-144.43;100.00;67396.00;5091514;28;20071;-61
2022/08/16 03:14:07;;;;;;;11.80;2.08;;;;;;;-144.43;100.00;67396.00;5084525;28;20040;-61
2022/08/16 03:17:32;;;;;;;;;;;;;;;-144.43;100.00;67396.00;5073475;28;20047;-60
2022/08/16 03:21:06;;;;;;;5.82;1.55;;;;;;;-144.43;100.00;67396.00;5111838;27;19916;-60
2022/08/16 03:24:32;;;;;;;9.73;1.85;;;;;;;-144.43;100.00;67396.00;5081703;28;20041;-63
2022/08/16 03:27:59;;;;;;;18.88;2.88;;;;;;;-144.43;100.00;67396.00;5098619;28;20036;-61
2022/08/16 03:31:27;;;;;;;29.10;3.50;;;;;;;-144.43;100.00;67396.00;5085800;28;20054;-62
2022/08/16 03:34:53;;;;;;;10.68;2.63;;;;;;;-144.43;100.00;67396.00;5081556;28;20089;-62
2022/08/16 03:38:18;;;;;;;11.48;2.17;;;;;;;-144.43;100.00;67396.00;5083770;28;20502;-61
2022/08/16 03:41:49;;;;;;;9.95;2.10;;;;;;;-144.43;100.00;67396.00;5081945;28;20036;-60
2022/08/16 03:45:14;;;;;;;8.27;1.98;;;;;;;-144.43;100.00;67396.00;5082012;28;20032;-63
2022/08/16 03:48:41;;;;;;;13.63;2.20;;;;;;;-144.43;100.00;67396.00;5081977;28;20040;-62
2022/08/16 03:52:15;;;;;;;8.27;2.22;;;;;;;-144.43;100.00;67396.00;5082399;28;20032;-60
2022/08/16 03:55:40;;;;;;;8.63;2.33;;;;;;;-144.43;100.00;67396.00;5085366;28;20052;-61
2022/08/16 03:59:06;;;;;;;8.85;1.90;;;;;;;-144.43;100.00;67396.00;5085890;28;20367;-59
2022/08/16 04:02:44;;;;;;;8.07;2.33;;;;;;;-144.43;100.00;67396.00;5102351;28;20081;-59
2022/08/16 04:06:15;;;;;;;8.05;2.30;;;;;;;-144.43;100.00;67396.00;5088759;28;20032;-61
2022/08/16 04:09:41;;;;;;;9.50;1.80;;;;;;;-144.43;100.00;67396.00;5087804;28;20052;-61
2022/08/16 04:13:08;;;;;;;10.27;2.20;;;;;;;-144.43;100.00;67396.00;5085092;28;20032;-58
2022/08/16 04:16:35;;;;;;;12.10;2.20;;;;;;;-144.43;100.00;67396.00;5105465;28;20035;-61
2022/08/16 04:20:30;;;;;;;5.93;2.20;;;;;;;-144.43;100.00;67396.00;5072890;28;20097;-62
2022/08/16 04:23:56;;;;;;;9.38;2.72;;;;;;;-144.43;100.00;67396.00;5084169;28;20055;-59
2022/08/16 04:27:22;;;;;;;10.18;2.95;;;;;;;-144.43;100.00;67396.00;5084305;28;20028;-61
2022/08/16 04:30:47;;;;;;;12.23;3.30;;;;;;;-144.43;100.00;67396.00;5108088;27;20060;-60
2022/08/16 04:34:13;;;;;;;12.93;3.92;;;;;;;-144.43;100.00;67396.00;5089884;28;20537;-61
2022/08/16 04:37:41;;;;;;;16.60;3.40;;;;;;;-144.43;100.00;67396.00;5091922;28;20528;-59
2022/08/16 04:41:14;;;;;;;11.15;2.17;;;;;;;-144.43;100.00;67396.00;5089953;28;20490;-60
2022/08/16 04:44:40;;;;;;;11.93;2.35;;;;;;;-144.43;100.00;67396.00;5092714;28;20146;-58
2022/08/16 04:48:05;;;;;;;11.68;3.10;;;;;;;-144.43;100.00;67396.00;5090280;28;20062;-60
2022/08/16 04:51:42;;;;;;;9.15;3.00;;;;;;;-144.43;100.00;67396.00;5076784;28;20037;-60
2022/08/16 04:55:09;;;;;;;10.20;3.67;;;;;;;-144.43;100.00;67396.00;5082717;28;20067;-60
2022/08/16 04:58:36;;;;;;;14.50;4.60;;;;;;;-144.43;100.00;67396.00;5076572;28;20028;-59
2022/08/16 05:02:02;;;;;;;13.40;4.07;;;;;;;-144.43;100.00;67396.00;5079661;28;20486;-61
2022/08/16 05:05:27;;;;;;;13.43;3.17;;;;;;;-144.43;100.00;67396.00;5090334;28;20035;-59
2022/08/16 05:08:53;;;;;;;18.42;3.10;;;;;;;-144.43;100.00;67396.00;5091089;28;20028;-59
2022/08/16 05:12:21;;;;;;;9.43;2.55;;;;;;;-144.43;100.00;67396.00;5090455;28;20115;-60
2022/08/16 05:15:47;;;;;;;8.13;2.50;;;;;;;-144.43;100.00;67396.00;5089115;28;20483;-61
2022/08/16 05:19:14;;;;;;;12.90;2.50;;;;;;;-144.43;100.00;67396.00;5084697;28;20032;-60
2022/08/16 05:22:57;;;;;;;9.38;2.50;;;;;;;-144.43;100.00;67396.00;5091341;28;20089;-61
2022/08/16 05:26:24;;;;;;;11.68;2.90;;;;;;;-144.43;100.00;67396.00;5105175;27;20063;-60
2022/08/16 05:29:50;;;;;;;10.35;2.80;;;;;;;-144.43;100.00;67396.00;5080454;28;20086;-61
2022/08/16 05:33:19;;;;;;;12.85;3.20;;;;;;;-144.43;100.00;67396.00;5090235;28;20047;-61
2022/08/16 05:36:51;;;;;;;8.25;2.38;;;;;;;-144.43;100.00;67396.00;5123613;27;20495;-61
2022/08/16 05:40:19;;;;;;;12.82;2.75;;;;;;;-144.43;100.00;67396.00;5090768;28;20067;-59
2022/08/16 05:43:30;;;;;;;9.38;2.58;;;;;;;-144.43;100.00;67396.00;5083020;28;20040;-62
2022/08/16 05:46:57;;;;;;;14.00;2.60;;;;;;;-144.43;100.00;67396.00;5090773;28;20040;-60
2022/08/16 05:50:25;;;;;;;9.23;2.90;;;;;;;-144.43;100.00;67396.00;5084573;28;20035;-59
2022/08/16 05:53:53;;;;;;;9.57;2.80;;;;;;;-144.43;100.00;67396.00;5092377;28;20127;-59
2022/08/16 05:57:18;;;;;;;;;;;;;;;-144.43;100.00;67396.00;5090229;28;20142;-59
2022/08/16 06:00:45;;;;;;;11.75;3.42;;;;;;;-144.43;100.00;67396.00;5089712;28;19916;-60
2022/08/16 06:04:12;;;;;;;14.48;2.88;;;;;;;-144.43;100.00;67396.00;5089030;28;20059;-61
2022/08/16 06:06:44;;;;;;;7.80;2.60;;;;;;;-144.43;100.00;67396.00;5088664;28;20051;-62
2022/08/16 06:10:11;;;;;;;14.52;2.92;;;;;;;-144.43;100.00;67396.00;5089457;28;20065;-61
2022/08/16 06:13:37;;;;;;;12.25;3.05;;;;;;;-144.43;100.00;67396.00;5090184;28;20024;-61
2022/08/16 06:17:04;;;;;;;10.73;2.97;;;;;;;-144.43;100.00;67396.00;5090244;28;20042;-60
2022/08/16 06:20:29;;;;;;;11.25;2.90;;;;;;;-144.43;100.00;67396.00;5089217;28;20032;-60
2022/08/16 06:23:57;;;;;;;8.80;2.60;;;;;;;-144.43;100.00;67396.00;5089355;28;20036;-61
2022/08/16 06:27:22;;;;;;;;;;;;;;;-144.43;100.00;67396.00;5089284;28;20036;-62
2022/08/16 06:30:48;;;;;;;12.00;3.50;;;;;;;-144.43;100.00;67396.00;5073827;28;19924;-61
2022/08/16 06:34:16;;;;;;;6.90;3.95;;;;;;;-144.43;100.00;67396.00;5089918;28;20371;-60
2022/08/16 06:37:42;;;;;;;15.93;4.03;;;;;;;-144.43;100.00;67396.00;5093559;28;20182;-61
2022/08/16 06:41:09;;;;;;;9.85;3.42;;;;;;;-144.43;100.00;67396.00;5087140;28;20161;-61
2022/08/16 06:44:35;;;;;;;11.05;3.40;;;;;;;-144.43;100.00;67396.00;5087893;28;20032;-61
2022/08/16 06:48:04;;;;;;;8.48;3.00;;;;;;;-144.43;100.00;67396.00;5089316;28;20063;-61
2022/08/16 06:51:29;;;;;;;;;;;;;;;-144.43;100.00;67396.00;5090490;28;20036;-61
2022/08/16 06:54:55;;;;;;;10.75;3.05;;;;;;;-144.43;100.00;67396.00;5091461;28;19961;-61
2022/08/16 06:58:20;;;;;;;7.60;2.53;;;;;;;-144.43;100.00;67396.00;5090038;28;20058;-62
2022/08/16 07:01:47;;;;;;;6.60;2.42;;;;;;;-144.43;100.00;67396.00;5089395;28;20036;-61
2022/08/16 07:05:14;;;;;;;11.57;2.50;;;;;;;-144.43;100.00;67396.00;5079230;28;20040;-61
2022/08/16 07:08:45;;;;;;;15.60;2.70;;;;;;;-144.43;100.00;67396.00;5088117;28;20043;-61
2022/08/16 07:12:13;;;;;;;11.13;2.67;;;;;;;-144.43;100.00;67396.00;5078076;28;20087;-62
2022/08/16 07:15:41;;;;;;;9.25;2.47;;;;;;;-144.43;100.00;67396.00;5089332;28;20032;-61
2022/08/16 07:19:07;;;;;;;9.65;2.38;;;;;;;-144.43;100.00;67396.00;5089918;28;20028;-60
2022/08/16 07:22:35;;;;;;;9.85;2.78;;;;;;;-144.43;100.00;67396.00;5090730;28;20032;-62
2022/08/16 07:26:01;;;;;;;12.73;2.50;;;;;;;-144.43;100.00;67396.00;5092376;28;20028;-61
2022/08/16 07:29:26;;;;;;;18.58;3.13;;;;;;;-144.43;100.00;67396.00;5081499;28;20149;-61
2022/08/16 07:32:52;;;;;;;11.95;2.70;;;;;;;-144.43;100.00;67396.00;5075808;28;20040;-62
2022/08/16 07:36:19;;;;;;;13.88;2.90;;;;;;;-144.43;100.00;67396.00;5090677;28;20467;-61
2022/08/16 07:39:45;;;;;;;10.77;2.85;;;;;;;-144.43;100.00;67396.00;5094855;28;20032;-61
2022/08/16 07:43:10;;;;;;;11.63;2.88;;;;;;;-144.43;100.00;67396.00;5092161;28;20039;-62
2022/08/16 07:46:35;;;;;;;6.97;3.00;;;;;;;-144.43;100.00;67396.00;5077448;28;20523;-62
2022/08/16 07:50:06;;;;;;;10.65;3.13;;;;;;;-144.43;100.00;67396.00;5075858;28;20072;-61
2022/08/16 07:53:33;;;;;;;;;;;;;;;-144.43;100.00;67396.00;5093957;28;20028;-61
2022/08/16 07:57:00;;;;;;;12.20;3.50;;;;;;;-144.43;100.00;67396.00;5075656;28;20276;-61
2022/08/16 08:00:25;;;;;;;8.48;3.13;;;;;;;-144.43;100.00;67396.00;5090630;28;21418;-62
2022/08/16 08:03:51;;;;;;;11.25;2.95;;;;;;;-144.43;100.00;67396.00;5091515;28;20055;-62
2022/08/16 08:07:23;;;;;;;9.93;3.13;;;;;;;-144.43;100.00;67396.00;5091646;28;20040;-62
2022/08/16 08:10:50;;;;;;;18.70;3.28;;;;;;;-144.43;100.00;67396.00;5093414;28;20032;-60
2022/08/16 08:14:17;;;;;;;12.55;2.97;;;;;;;-144.43;100.00;67396.00;5091747;28;20048;-61
2022/08/16 08:17:49;;;;;;;13.75;3.58;;;;;;;-144.43;100.00;67396.00;5092915;28;20036;-61
2022/08/16 08:21:20;;;;;;;16.02;3.30;;;;;;;-144.43;100.00;67396.00;5097863;28;20032;-63
2022/08/16 08:24:45;;;;;;;11.65;2.75;;;;;;;-144.43;100.00;67396.00;5093636;28;20047;-62
2022/08/16 08:28:12;;;;;;;;;;;;;;;-144.43;100.00;67396.00;5090024;28;20032;-62
2022/08/16 08:31:43;;;;;;;9.70;2.75;;;;;;;-144.43;100.00;67396.00;5112288;27;19916;-60
2022/08/16 08:35:10;;;;;;;13.40;3.20;;;;;;;-144.43;100.00;67396.00;5078308;28;20031;-60
2022/08/16 08:38:37;;;;;;;9.35;3.00;;;;;;;-144.43;100.00;67396.00;5092403;28;20474;-62
2022/08/16 08:42:04;;;;;;;15.73;3.13;;;;;;;-144.43;100.00;67396.00;5092659;28;20105;-61
2022/08/16 08:45:30;;;;;;;9.88;3.20;;;;;;;-144.43;100.00;67396.00;5092977;28;20063;-61
2022/08/16 08:48:56;;;;;;;15.60;4.00;;;;;;;-144.43;100.00;67396.00;5089577;28;20036;-60
2022/08/16 08:52:21;;;;;;;10.52;3.65;;;;;;;-144.43;100.00;67396.00;5089519;28;20036;-61
2022/08/16 08:55:48;;;;;;;;;;;;;;;-144.43;100.00;67396.00;5085118;28;20059;-61
2022/08/16 08:59:15;;;;;;;10.15;3.10;;;;;;;-144.43;100.00;67396.00;5080252;28;19959;-61
2022/08/16 09:02:41;;;;;;;9.33;3.70;;;;;;;-144.43;100.00;67396.00;5077278;28;20037;-61
2022/08/16 09:06:07;;;;;;;13.23;4.38;;;;;;;-144.43;100.00;67396.00;5077778;28;20052;-61
2022/08/16 09:09:36;;;;;;;17.05;4.57;;;;;;;-144.43;100.00;67396.00;5092799;28;20039;-62
2022/08/16 09:13:04;;;;;;;10.15;3.45;;;;;;;-144.43;100.00;67396.00;5092596;28;20040;-61
2022/08/16 09:16:38;;;;;;;15.60;4.05;;;;;;;-144.43;100.00;67396.00;5091316;28;20482;-61
2022/08/16 09:20:05;;;;;;;10.82;3.63;;;;;;;-144.43;100.00;67396.00;5078518;28;20455;-62
2022/08/16 09:23:31;;;;;;;14.02;3.90;;;;;;;-144.43;100.00;67396.00;5092218;28;20047;-62
2022/08/16 09:26:56;;;;;;;8.00;3.72;;;;;;;-144.43;100.00;67396.00;5091414;28;20032;-62
2022/08/16 09:30:22;;;;;;;12.15;4.63;;;;;;;-144.43;100.00;67396.00;5059032;28;20032;-61
2022/08/16 09:33:47;;;;;;;16.48;4.10;;;;;;;-144.43;100.00;67396.00;5081409;28;20029;-61
2022/08/16 09:37:14;;;;;;;9.77;3.17;;;;;;;-144.43;100.00;67396.00;5093525;28;20040;-61
2022/08/16 09:40:41;;;;;;;13.60;2.65;;;;;;;-144.43;100.00;67396.00;5075936;28;20775;-61
2022/08/16 09:44:07;;;;;;;12.93;3.00;;;;;;;-144.43;100.00;67396.00;5086256;28;20486;-60
2022/08/16 09:47:38;;;;;;;9.93;3.03;;;;;;;-144.43;100.00;67396.00;5083287;28;20039;-60
2022/08/16 09:51:12;;;;;;;11.93;3.17;;;;;;;-144.43;100.00;67396.00;5101105;28;20060;-62
2022/08/16 09:54:39;;;;;;;9.32;2.70;;;;;;;-144.43;100.00;67396.00;5090839;28;20393;-62
2022/08/16 09:58:04;;;;;;;6.72;2.67;;;;;;;-144.43;100.00;67396.00;5086766;28;20032;-62
2022/08/16 10:01:30;;;;;;;21.07;3.40;;;;;;;-144.43;100.00;67396.00;5099112;28;20035;-61
2022/08/16 10:04:56;;;;;;;13.50;2.75;;;;;;;-144.43;100.00;67396.00;5088090;28;20283;-60
2022/08/16 10:08:23;;;;;;;9.48;2.95;;;;;;;-144.43;100.00;67396.00;5089511;28;20401;-61
2022/08/16 10:15:32;;;;;;;13.05;3.22;;;;;;;-144.43;100.00;67396.00;5093247;28;20044;-61
2022/08/16 10:18:58;;;;;;;8.35;3.00;;;;;;;-144.43;100.00;67396.00;5087863;28;20064;-60
2022/08/16 10:22:23;;;;;;;10.85;2.92;;;;;;;-144.43;100.00;67396.00;5089218;28;20456;-61
2022/08/16 10:25:48;;;;;;;13.30;2.60;;;;;;;-144.43;100.00;67396.00;5084524;28;20047;-61
2022/08/16 10:29:14;;;;;;;6.70;2.20;;;;;;;-144.43;100.00;67396.00;5092763;28;20043;-61
2022/08/16 10:32:40;;;;;;;7.18;2.38;;;;;;;-144.43;100.00;67396.00;5075767;28;20029;-60
2022/08/16 10:36:07;;;;;;;12.18;2.70;;;;;;;-144.43;100.00;67396.00;5085790;28;20039;-61
2022/08/16 10:39:33;;;;;;;12.15;2.40;;;;;;;-144.43;100.00;67396.00;5082670;28;20128;-60
2022/08/16 10:42:59;;;;;;;10.52;2.55;;;;;;;-144.43;100.00;67396.00;5092344;28;20035;-62
2022/08/16 10:46:21;;;;;;;13.95;2.60;;;;;;;-144.43;100.00;67396.28;5088152;28;20455;-60
2022/08/16 10:49:46;;;;;;;10.23;2.65;;;;;;;-144.43;100.00;67396.00;5080211;28;20433;-61
2022/08/16 10:53:11;;;;;;;9.15;2.50;;;;;;;-144.43;100.00;67396.00;5092248;28;20126;-61
2022/08/16 10:56:38;;;;;;;14.13;3.00;;;;;;;-144.43;100.00;67396.00;5075550;28;20040;-61
2022/08/16 11:00:08;;;;;;;11.52;2.97;;;;;;;-144.43;100.00;67396.00;5077871;28;20036;-60
2022/08/16 11:03:35;;;;;;;9.40;3.00;;;;;;;-144.43;100.00;67396.00;5091869;28;20131;-59
2022/08/16 11:07:04;;;;;;;12.05;3.42;;;;;;;-144.43;100.00;67396.00;5092129;28;20046;-61
2022/08/16 11:10:32;;;;;;;12.13;3.40;;;;;;;-144.43;100.00;67396.00;5079139;28;20033;-62
2022/08/16 11:13:58;;;;;;;14.25;3.95;;;;;;;-144.43;100.00;67396.00;5085941;28;20028;-60
2022/08/16 11:17:23;;;;;;;15.05;3.45;;;;;;;-144.43;100.00;67396.00;5087570;28;20032;-60
2022/08/16 11:20:49;;;;;;;9.20;3.33;;;;;;;-144.43;100.00;67396.00;5096223;28;20036;-61
2022/08/16 11:24:15;;;;;;;11.77;3.15;;;;;;;-144.43;100.00;67396.00;5080174;28;20296;-60
2022/08/16 11:27:42;;;;;;;10.15;3.13;;;;;;;-144.43;100.00;67396.00;5095623;28;20051;-60
2022/08/16 11:31:11;;;;;;;25.30;4.93;;;;;;;-144.43;100.00;67396.00;5094786;28;20089;-61
2022/08/16 11:34:36;;;;;;;8.10;3.20;;;;;;;-144.43;100.00;67396.00;5078911;28;20119;-61
2022/08/16 11:38:13;;;;;;;9.38;3.08;;;;;;;-144.43;100.00;67396.00;5081474;28;20387;-61
2022/08/16 11:41:40;;;;;;;11.27;2.90;;;;;;;-144.43;100.00;67396.00;5095778;28;20072;-61
2022/08/16 11:45:06;;;;;;;10.35;3.10;;;;;;;-144.43;100.00;67396.00;5096283;28;20032;-61
2022/08/16 11:48:34;;;;;;;5.18;2.60;;;;;;;-144.43;100.00;67396.00;5094171;28;20047;-61
2022/08/16 11:52:00;;;;;;;11.27;3.30;;;;;;;-144.43;100.00;67396.00;5088925;28;20032;-62
2022/08/16 11:55:25;;;;;;;7.72;3.92;;;;;;;-144.43;100.00;67396.00;5095654;28;20043;-62
2022/08/16 11:58:51;;;;;;;10.60;4.63;;;;;;;-144.43;100.00;67396.00;5095585;28;20123;-61
2022/08/16 12:02:16;;;;;;;11.23;8.30;;;;;;;-144.43;100.00;67396.00;5079291;28;20040;-62
2022/08/16 12:05:43;;;;;;;9.50;4.03;;;;;;;-144.43;100.00;67396.00;5094028;28;20119;-60
2022/08/16 12:09:09;;;;;;;8.95;3.13;;;;;;;-144.43;100.00;67396.00;5093850;28;20081;-61
2022/08/16 12:12:34;;;;;;;10.90;3.10;;;;;;;-144.43;100.00;67396.00;5077060;28;20036;-61
2022/08/16 12:15:59;;;;;;;10.50;2.45;;;;;;;-144.43;100.00;67396.00;5087524;28;20024;-61
2022/08/16 12:19:25;;;;;;;7.05;2.70;;;;;;;-144.43;100.00;67396.00;5083516;28;20029;-61
2022/08/16 12:22:50;;;;;;;8.50;2.92;;;;;;;-144.43;100.00;67396.00;5093338;28;20028;-61
2022/08/16 12:26:16;;;;;;;7.17;2.77;;;;;;;-144.43;100.00;67396.00;5093837;28;20471;-61
2022/08/16 12:29:42;;;;;;;11.95;2.65;;;;;;;-144.43;100.00;67396.00;5093760;28;20417;-61
2022/08/16 12:33:09;;;;;;;9.43;3.13;;;;;;;-144.43;100.00;67396.00;5091762;28;20036;-62
2022/08/16 12:36:35;;;;;;;13.38;3.00;;;;;;;-144.43;100.00;67396.00;5091506;28;20428;-62
2022/08/16 12:40:03;;;;;;;10.82;3.35;;;;;;;-144.43;100.00;67396.00;5079633;28;20528;-61
2022/08/16 12:43:30;;;;;;;8.93;3.17;;;;;;;-144.43;100.00;67396.00;5092982;28;20032;-62
2022/08/16 12:50:39;;;;;;;9.90;3.30;;;;;;;-144.43;100.00;67396.00;5092418;28;20385;-61
2022/08/16 12:54:07;;;;;;;9.83;3.57;;;;;;;-144.43;100.00;67396.00;5091984;28;20028;-61
2022/08/16 12:57:35;;;;;;;14.30;4.85;;;;;;;-144.43;100.00;67396.00;5090423;28;20114;-62
2022/08/16 13:01:04;;;;;;;12.40;4.90;;;;;;;-144.43;100.00;67396.00;5092825;28;20111;-60
2022/08/16 13:04:31;;;;;;;21.90;5.07;;;;;;;-144.43;100.00;67396.00;5020596;28;2060933;-62
2022/08/16 13:07:58;;;;;;;13.25;3.75;;;;;;;-144.43;100.00;67396.00;5091511;28;20051;-60
2022/08/16 13:11:28;;;;;;;16.10;3.63;;;;;;;-144.43;100.00;67396.00;5093593;28;20032;-61
2022/08/16 13:14:54;;;;;;;11.82;3.75;;;;;;;-144.43;100.00;67396.00;5091103;28;20024;-61
2022/08/16 13:18:20;;;;;;;;;;;;;;;-144.43;100.00;67396.00;5093953;28;20075;-62
2022/08/16 13:21:46;;;;;;;13.63;4.47;;;;;;;-144.43;100.00;67396.00;5092175;28;19916;-61
2022/08/16 13:25:14;;;;;;;10.63;4.45;;;;;;;-144.43;100.00;67396.00;5089081;28;20098;-62
2022/08/16 13:28:39;;;;;;;9.63;4.10;;;;;;;-144.43;100.00;67396.00;5092742;28;20047;-61
2022/08/16 13:32:05;;;;;;;13.90;3.88;;;;;;;-144.43;100.00;67396.00;5092382;28;20386;-60
2022/08/16 13:35:30;;;;;;;12.88;2.90;;;;;;;-144.43;100.00;67396.00;5093599;28;20071;-61
2022/08/16 13:38:56;;;;;;;14.57;3.27;;;;;;;-144.43;100.00;67396.00;5093565;28;20036;-60
2022/08/16 13:42:21;;;;;;;12.23;3.92;;;;;;;-144.43;100.00;67396.00;5076287;28;20040;-61
2022/08/16 13:45:46;;;;;;;10.20;2.70;;;;;;;-144.43;100.00;67396.00;5092811;28;20439;-60
2022/08/16 13:49:12;;;;;;;12.55;3.97;;;;;;;-144.43;100.00;67396.00;5086145;28;20039;-61
2022/08/16 13:51:40;;;;;;;16.65;4.97;;;;;;;-144.43;100.00;67396.00;5092095;28;20371;-61
2022/08/16 13:54:06;;;;;;;15.73;4.70;;;;;;;-144.43;100.00;67396.00;5087221;28;20045;-60
2022/08/16 13:56:35;;;;;;;14.40;4.60;;;;;;;-144.43;100.00;67396.00;5082863;28;20406;-60
2022/08/16 14:00:01;;;;;;;16.55;5.22;;;;;;;-144.43;100.00;67396.00;5079182;28;20031;-61
2022/08/16 14:03:26;;;;;;;13.25;5.07;;;;;;;-144.43;100.00;67396.00;5101937;28;20039;-61
2022/08/16 14:06:52;;;;;;;12.13;4.60;;;;;;;-144.43;100.00;67396.00;5091844;28;20051;-62
2022/08/16 14:10:17;;;;;;;10.93;5.13;;;;;;;-144.43;100.00;67396.00;5092597;28;20024;-61
2022/08/16 14:13:43;;;;;;;20.27;5.30;;;;;;;-144.43;100.00;67396.00;5092509;28;20123;-61
2022/08/16 14:17:08;;;;;;;17.33;5.35;;;;;;;-144.43;100.00;67396.00;5092154;28;20494;-61
2022/08/16 14:20:33;;;;;;;12.10;4.93;;;;;;;-144.43;100.00;67396.00;5092380;28;20078;-60
2022/08/16 14:24:01;;;;;;;14.30;4.40;;;;;;;-144.43;100.00;67396.00;5085107;28;20773;-61
2022/08/16 14:27:27;;;;;;;10.90;4.22;;;;;;;-144.43;100.00;67396.00;5092656;28;20044;-61
2022/08/16 14:30:53;;;;;;;10.82;4.13;;;;;;;-144.43;100.00;67396.00;5092858;28;20446;-60
2022/08/16 14:34:18;;;;;;;;;;;;;;;-144.43;100.00;67396.00;5083757;28;20089;-60
2022/08/16 14:37:44;;;;;;;10.57;2.92;;;;;;;-144.43;100.00;67396.00;5097922;28;19961;-60
2022/08/16 14:41:10;;;;;;;14.05;3.03;;;;;;;-144.43;100.00;67396.00;5096788;28;20036;-61
2022/08/16 14:44:36;;;;;;;19.25;2.92;;;;;;;-144.43;100.00;67396.00;5094065;28;20490;-60
2022/08/16 14:48:02;;;;;;;12.27;3.10;;;;;;;-144.43;100.00;67396.00;5092323;28;20075;-60
2022/08/16 14:51:27;;;;;;;13.52;3.13;;;;;;;-144.43;100.00;67396.00;5092700;28;20040;-60
2022/08/16 14:54:53;;;;;;;13.40;2.90;;;;;;;-144.43;100.00;67396.00;5092280;28;20405;-61
2022/08/16 14:58:18;;;;;;;;;;;;;;;-144.43;100.00;67396.00;5076421;28;20037;-61
2022/08/16 15:01:44;;;;;;;11.45;3.05;;;;;;;-144.43;100.00;67396.00;5080823;28;19962;-60
2022/08/16 15:05:10;;;;;;;13.77;3.53;;;;;;;-144.43;100.00;67396.00;5092076;28;20044;-60
2022/08/16 15:08:36;;;;;;;12.75;3.42;;;;;;;-144.43;100.00;67396.00;5075472;28;20146;-60
2022/08/16 15:12:05;;;;;;;14.90;3.10;;;;;;;-144.43;100.00;67396.00;5078347;28;20029;-61
2022/08/16 15:15:30;;;;;;;16.83;3.55;;;;;;;-144.43;100.00;67396.00;5092226;28;20028;-60
2022/08/16 15:18:59;;;;;;;18.80;3.40;;;;;;;-144.43;100.00;67396.00;5091956;28;20543;-61
2022/08/16 15:22:28;;;;;;;14.18;3.22;;;;;;;-144.43;100.00;67396.00;5075489;28;20266;-59
2022/08/16 15:25:55;;;;;;;10.57;2.80;;;;;;;-144.43;100.00;67396.00;5079214;28;20081;-61
2022/08/16 15:29:20;;;;;;;13.63;3.08;;;;;;;-144.43;100.00;67396.00;5092129;28;20054;-61